sensor_id;sensor_type;location;lat;lon;timestamp;P1;durP1;ratioP1;P2;durP2;ratioP2
3547;SDS011;1788;49.400;11.092;2023-09-07T00:00:24;6.57;;;5.77;;
3547;SDS011;1788;49.400;11.092;2023-09-07T00:02:51;7.27;;;5.70;;
3547;SDS011;1788;49.400;11.092;2023-09-07T00:05:17;7.77;;;5.53;;
3547;SDS011;1788;49.400;11.092;2023-09-07T00:07:44;7.77;;;5.13;;
3547;SDS011;1788;49.400;11.092;2023-09-07T00:10:11;7.73;;;6.27;;
3547;SDS011;1788;49.400;11.092;2023-09-07T00:12:37;7.50;;;5.93;;
3547;SDS011;1788;49.400;11.092;2023-09-07T00:15:04;8.93;;;5.90;;
3547;SDS011;1788;49.400;11.092;2023-09-07T00:17:30;6.67;;;5.23;;
3547;SDS011;1788;49.400;11.092;2023-09-07T00:19:57;8.37;;;6.00;;
3547;SDS011;1788;49.400;11.092;2023-09-07T00:22:24;6.23;;;5.07;;
3547;SDS011;1788;49.400;11.092;2023-09-07T00:24:50;8.53;;;6.43;;
3547;SDS011;1788;49.400;11.092;2023-09-07T00:27:17;7.20;;;6.10;;
3547;SDS011;1788;49.400;11.092;2023-09-07T00:29:43;6.23;;;5.23;;
3547;SDS011;1788;49.400;11.092;2023-09-07T00:32:10;8.77;;;6.77;;
3547;SDS011;1788;49.400;11.092;2023-09-07T00:34:37;6.87;;;5.60;;
3547;SDS011;1788;49.400;11.092;2023-09-07T00:37:04;5.70;;;5.40;;
3547;SDS011;1788;49.400;11.092;2023-09-07T00:39:31;8.67;;;6.33;;
3547;SDS011;1788;49.400;11.092;2023-09-07T00:41:57;7.33;;;6.17;;
3547;SDS011;1788;49.400;11.092;2023-09-07T00:44:24;10.07;;;6.13;;
3547;SDS011;1788;49.400;11.092;2023-09-07T00:46:51;8.83;;;6.40;;
3547;SDS011;1788;49.400;11.092;2023-09-07T00:49:18;11.23;;;6.10;;
3547;SDS011;1788;49.400;11.092;2023-09-07T00:51:45;6.83;;;6.10;;
3547;SDS011;1788;49.400;11.092;2023-09-07T00:54:12;8.73;;;6.33;;
3547;SDS011;1788;49.400;11.092;2023-09-07T00:56:38;8.20;;;6.50;;
3547;SDS011;1788;49.400;11.092;2023-09-07T00:59:05;8.80;;;6.63;;
3547;SDS011;1788;49.400;11.092;2023-09-07T01:01:32;11.30;;;6.70;;
3547;SDS011;1788;49.400;11.092;2023-09-07T01:03:58;7.83;;;6.23;;
3547;SDS011;1788;49.400;11.092;2023-09-07T01:06:26;6.77;;;6.37;;
3547;SDS011;1788;49.400;11.092;2023-09-07T01:08:53;7.43;;;6.50;;
3547;SDS011;1788;49.400;11.092;2023-09-07T01:11:19;8.60;;;6.23;;
3547;SDS011;1788;49.400;11.092;2023-09-07T01:13:46;6.23;;;5.93;;
3547;SDS011;1788;49.400;11.092;2023-09-07T01:16:13;11.33;;;6.50;;
3547;SDS011;1788;49.400;11.092;2023-09-07T01:18:40;6.27;;;5.93;;
3547;SDS011;1788;49.400;11.092;2023-09-07T01:21:08;7.90;;;6.33;;
3547;SDS011;1788;49.400;11.092;2023-09-07T01:23:36;7.73;;;6.20;;
3547;SDS011;1788;49.400;11.092;2023-09-07T01:26:00;6.30;;;5.97;;
3547;SDS011;1788;49.400;11.092;2023-09-07T01:28:27;8.30;;;6.53;;
3547;SDS011;1788;49.400;11.092;2023-09-07T01:30:54;7.63;;;6.43;;
3547;SDS011;1788;49.400;11.092;2023-09-07T01:33:20;7.73;;;6.53;;
3547;SDS011;1788;49.400;11.092;2023-09-07T01:35:47;8.10;;;5.77;;
3547;SDS011;1788;49.400;11.092;2023-09-07T01:38:14;7.17;;;6.00;;
3547;SDS011;1788;49.400;11.092;2023-09-07T01:40:40;7.10;;;6.13;;
3547;SDS011;1788;49.400;11.092;2023-09-07T01:43:08;8.20;;;6.50;;
3547;SDS011;1788;49.400;11.092;2023-09-07T01:45:34;7.37;;;6.23;;
3547;SDS011;1788;49.400;11.092;2023-09-07T01:48:01;8.87;;;6.23;;
3547;SDS011;1788;49.400;11.092;2023-09-07T01:50:27;8.07;;;5.77;;
3547;SDS011;1788;49.400;11.092;2023-09-07T01:52:54;7.83;;;6.43;;
3547;SDS011;1788;49.400;11.092;2023-09-07T01:55:21;8.83;;;5.80;;
3547;SDS011;1788;49.400;11.092;2023-09-07T01:57:48;6.60;;;6.20;;
3547;SDS011;1788;49.400;11.092;2023-09-07T02:00:15;6.07;;;5.80;;
3547;SDS011;1788;49.400;11.092;2023-09-07T02:02:42;8.03;;;6.77;;
3547;SDS011;1788;49.400;11.092;2023-09-07T02:05:09;7.13;;;5.93;;
3547;SDS011;1788;49.400;11.092;2023-09-07T02:07:35;6.57;;;6.00;;
3547;SDS011;1788;49.400;11.092;2023-09-07T02:10:02;7.67;;;5.63;;
3547;SDS011;1788;49.400;11.092;2023-09-07T02:12:28;9.57;;;6.30;;
3547;SDS011;1788;49.400;11.092;2023-09-07T02:14:55;8.83;;;5.97;;
3547;SDS011;1788;49.400;11.092;2023-09-07T02:17:22;9.17;;;6.73;;
3547;SDS011;1788;49.400;11.092;2023-09-07T02:19:48;10.00;;;5.87;;
3547;SDS011;1788;49.400;11.092;2023-09-07T02:22:16;8.07;;;6.43;;
3547;SDS011;1788;49.400;11.092;2023-09-07T02:24:42;10.67;;;6.20;;
3547;SDS011;1788;49.400;11.092;2023-09-07T02:27:09;9.17;;;7.17;;
3547;SDS011;1788;49.400;11.092;2023-09-07T02:29:36;8.73;;;5.77;;
3547;SDS011;1788;49.400;11.092;2023-09-07T02:32:03;7.93;;;5.60;;
3547;SDS011;1788;49.400;11.092;2023-09-07T02:34:30;6.73;;;6.33;;
3547;SDS011;1788;49.400;11.092;2023-09-07T02:36:56;8.67;;;6.13;;
3547;SDS011;1788;49.400;11.092;2023-09-07T02:39:23;9.13;;;6.13;;
3547;SDS011;1788;49.400;11.092;2023-09-07T02:41:49;7.80;;;6.00;;
3547;SDS011;1788;49.400;11.092;2023-09-07T02:44:16;9.20;;;6.40;;
3547;SDS011;1788;49.400;11.092;2023-09-07T02:46:44;7.33;;;6.50;;
3547;SDS011;1788;49.400;11.092;2023-09-07T02:49:10;6.00;;;5.70;;
3547;SDS011;1788;49.400;11.092;2023-09-07T02:51:37;8.63;;;6.40;;
3547;SDS011;1788;49.400;11.092;2023-09-07T02:54:04;7.60;;;5.93;;
3547;SDS011;1788;49.400;11.092;2023-09-07T02:56:30;5.93;;;5.53;;
3547;SDS011;1788;49.400;11.092;2023-09-07T02:58:57;8.43;;;6.50;;
3547;SDS011;1788;49.400;11.092;2023-09-07T03:01:23;8.47;;;6.10;;
3547;SDS011;1788;49.400;11.092;2023-09-07T03:03:50;9.07;;;6.17;;
3547;SDS011;1788;49.400;11.092;2023-09-07T03:06:16;7.80;;;5.73;;
3547;SDS011;1788;49.400;11.092;2023-09-07T03:08:43;9.00;;;5.90;;
3547;SDS011;1788;49.400;11.092;2023-09-07T03:11:11;9.93;;;6.47;;
3547;SDS011;1788;49.400;11.092;2023-09-07T03:13:37;6.10;;;5.80;;
3547;SDS011;1788;49.400;11.092;2023-09-07T03:16:04;9.70;;;5.60;;
3547;SDS011;1788;49.400;11.092;2023-09-07T03:18:30;9.83;;;6.47;;
3547;SDS011;1788;49.400;11.092;2023-09-07T03:20:58;7.47;;;5.83;;
3547;SDS011;1788;49.400;11.092;2023-09-07T03:23:24;6.43;;;5.37;;
3547;SDS011;1788;49.400;11.092;2023-09-07T03:25:51;6.63;;;5.90;;
3547;SDS011;1788;49.400;11.092;2023-09-07T03:28:18;11.27;;;6.67;;
3547;SDS011;1788;49.400;11.092;2023-09-07T03:30:45;10.10;;;6.10;;
3547;SDS011;1788;49.400;11.092;2023-09-07T03:33:12;8.73;;;6.60;;
3547;SDS011;1788;49.400;11.092;2023-09-07T03:35:39;9.17;;;6.50;;
3547;SDS011;1788;49.400;11.092;2023-09-07T03:38:06;7.90;;;6.50;;
3547;SDS011;1788;49.400;11.092;2023-09-07T03:40:33;6.60;;;5.73;;
3547;SDS011;1788;49.400;11.092;2023-09-07T03:43:00;7.90;;;6.13;;
3547;SDS011;1788;49.400;11.092;2023-09-07T03:45:27;6.90;;;5.77;;
3547;SDS011;1788;49.400;11.092;2023-09-07T03:47:54;7.80;;;5.87;;
3547;SDS011;1788;49.400;11.092;2023-09-07T03:50:20;8.70;;;5.53;;
3547;SDS011;1788;49.400;11.092;2023-09-07T03:52:47;9.13;;;6.50;;
3547;SDS011;1788;49.400;11.092;2023-09-07T03:55:13;9.90;;;6.67;;
3547;SDS011;1788;49.400;11.092;2023-09-07T03:57:40;9.53;;;6.60;;
3547;SDS011;1788;49.400;11.092;2023-09-07T04:00:07;8.50;;;6.17;;
3547;SDS011;1788;49.400;11.092;2023-09-07T04:02:33;7.00;;;6.03;;
3547;SDS011;1788;49.400;11.092;2023-09-07T04:05:00;9.40;;;6.00;;
3547;SDS011;1788;49.400;11.092;2023-09-07T04:07:27;8.07;;;6.37;;
3547;SDS011;1788;49.400;11.092;2023-09-07T04:09:53;10.93;;;7.00;;
3547;SDS011;1788;49.400;11.092;2023-09-07T04:12:20;10.30;;;7.57;;
3547;SDS011;1788;49.400;11.092;2023-09-07T04:14:46;7.50;;;7.10;;
3547;SDS011;1788;49.400;11.092;2023-09-07T04:17:13;9.30;;;7.13;;
3547;SDS011;1788;49.400;11.092;2023-09-07T04:19:40;8.40;;;6.63;;
3547;SDS011;1788;49.400;11.092;2023-09-07T04:22:06;8.03;;;6.33;;
3547;SDS011;1788;49.400;11.092;2023-09-07T04:24:33;9.67;;;6.00;;
3547;SDS011;1788;49.400;11.092;2023-09-07T04:27:00;7.13;;;6.17;;
3547;SDS011;1788;49.400;11.092;2023-09-07T04:29:26;8.33;;;6.80;;
3547;SDS011;1788;49.400;11.092;2023-09-07T04:31:53;9.03;;;6.17;;
3547;SDS011;1788;49.400;11.092;2023-09-07T04:34:21;7.63;;;6.73;;
3547;SDS011;1788;49.400;11.092;2023-09-07T04:36:47;8.50;;;7.67;;
3547;SDS011;1788;49.400;11.092;2023-09-07T04:39:14;8.27;;;6.90;;
3547;SDS011;1788;49.400;11.092;2023-09-07T04:41:41;8.30;;;7.13;;
3547;SDS011;1788;49.400;11.092;2023-09-07T04:44:07;9.43;;;7.60;;
3547;SDS011;1788;49.400;11.092;2023-09-07T04:46:34;10.63;;;7.30;;
3547;SDS011;1788;49.400;11.092;2023-09-07T04:49:01;7.33;;;5.97;;
3547;SDS011;1788;49.400;11.092;2023-09-07T04:51:28;11.07;;;6.83;;
3547;SDS011;1788;49.400;11.092;2023-09-07T04:53:55;10.40;;;7.30;;
3547;SDS011;1788;49.400;11.092;2023-09-07T04:56:22;8.53;;;6.93;;
3547;SDS011;1788;49.400;11.092;2023-09-07T04:58:49;8.37;;;7.03;;
3547;SDS011;1788;49.400;11.092;2023-09-07T05:01:16;8.70;;;6.70;;
3547;SDS011;1788;49.400;11.092;2023-09-07T05:03:42;9.23;;;6.93;;
3547;SDS011;1788;49.400;11.092;2023-09-07T05:06:11;10.10;;;6.87;;
3547;SDS011;1788;49.400;11.092;2023-09-07T05:08:36;8.00;;;6.70;;
3547;SDS011;1788;49.400;11.092;2023-09-07T05:11:03;8.73;;;6.53;;
3547;SDS011;1788;49.400;11.092;2023-09-07T05:13:29;9.97;;;6.53;;
3547;SDS011;1788;49.400;11.092;2023-09-07T05:15:56;8.87;;;6.93;;
3547;SDS011;1788;49.400;11.092;2023-09-07T05:18:23;11.17;;;7.20;;
3547;SDS011;1788;49.400;11.092;2023-09-07T05:20:50;10.10;;;6.97;;
3547;SDS011;1788;49.400;11.092;2023-09-07T05:28:12;10.07;;;6.87;;
3547;SDS011;1788;49.400;11.092;2023-09-07T05:30:38;9.47;;;6.87;;
3547;SDS011;1788;49.400;11.092;2023-09-07T05:33:05;7.87;;;7.10;;
3547;SDS011;1788;49.400;11.092;2023-09-07T05:35:32;9.07;;;6.77;;
3547;SDS011;1788;49.400;11.092;2023-09-07T05:37:59;9.23;;;6.93;;
3547;SDS011;1788;49.400;11.092;2023-09-07T05:40:27;9.47;;;6.80;;
3547;SDS011;1788;49.400;11.092;2023-09-07T05:42:52;10.33;;;7.30;;
3547;SDS011;1788;49.400;11.092;2023-09-07T05:45:19;10.10;;;7.13;;
3547;SDS011;1788;49.400;11.092;2023-09-07T05:47:46;11.53;;;7.67;;
3547;SDS011;1788;49.400;11.092;2023-09-07T05:50:13;10.80;;;7.67;;
3547;SDS011;1788;49.400;11.092;2023-09-07T05:52:40;11.27;;;7.60;;
3547;SDS011;1788;49.400;11.092;2023-09-07T05:55:07;11.60;;;7.87;;
3547;SDS011;1788;49.400;11.092;2023-09-07T05:57:34;10.57;;;8.03;;
3547;SDS011;1788;49.400;11.092;2023-09-07T06:00:01;10.60;;;8.50;;
3547;SDS011;1788;49.400;11.092;2023-09-07T06:02:28;11.00;;;8.30;;
3547;SDS011;1788;49.400;11.092;2023-09-07T06:04:55;10.13;;;7.70;;
3547;SDS011;1788;49.400;11.092;2023-09-07T06:07:22;11.80;;;8.13;;
3547;SDS011;1788;49.400;11.092;2023-09-07T06:09:49;11.57;;;7.87;;
3547;SDS011;1788;49.400;11.092;2023-09-07T06:12:16;10.30;;;7.63;;
3547;SDS011;1788;49.400;11.092;2023-09-07T06:14:42;11.33;;;8.83;;
3547;SDS011;1788;49.400;11.092;2023-09-07T06:17:09;10.40;;;8.17;;
3547;SDS011;1788;49.400;11.092;2023-09-07T06:19:35;12.37;;;8.40;;
3547;SDS011;1788;49.400;11.092;2023-09-07T06:22:02;14.83;;;8.40;;
3547;SDS011;1788;49.400;11.092;2023-09-07T06:24:29;14.33;;;8.70;;
3547;SDS011;1788;49.400;11.092;2023-09-07T06:26:55;15.20;;;8.90;;
3547;SDS011;1788;49.400;11.092;2023-09-07T06:29:23;13.53;;;8.93;;
3547;SDS011;1788;49.400;11.092;2023-09-07T06:31:49;11.00;;;8.90;;
3547;SDS011;1788;49.400;11.092;2023-09-07T06:34:16;14.63;;;8.67;;
3547;SDS011;1788;49.400;11.092;2023-09-07T06:36:42;11.77;;;9.30;;
3547;SDS011;1788;49.400;11.092;2023-09-07T06:39:09;9.40;;;8.27;;
3547;SDS011;1788;49.400;11.092;2023-09-07T06:41:36;11.73;;;9.27;;
3547;SDS011;1788;49.400;11.092;2023-09-07T06:44:03;13.03;;;8.37;;
3547;SDS011;1788;49.400;11.092;2023-09-07T06:46:33;10.63;;;8.83;;
3547;SDS011;1788;49.400;11.092;2023-09-07T06:49:00;11.80;;;8.93;;
3547;SDS011;1788;49.400;11.092;2023-09-07T06:51:27;10.63;;;8.40;;
3547;SDS011;1788;49.400;11.092;2023-09-07T06:53:54;15.57;;;9.63;;
3547;SDS011;1788;49.400;11.092;2023-09-07T06:56:21;13.97;;;8.90;;
3547;SDS011;1788;49.400;11.092;2023-09-07T06:58:48;11.17;;;8.83;;
3547;SDS011;1788;49.400;11.092;2023-09-07T07:01:15;14.23;;;8.80;;
3547;SDS011;1788;49.400;11.092;2023-09-07T07:03:42;14.03;;;8.83;;
3547;SDS011;1788;49.400;11.092;2023-09-07T07:06:09;12.30;;;8.23;;
3547;SDS011;1788;49.400;11.092;2023-09-07T07:08:36;11.63;;;8.47;;
3547;SDS011;1788;49.400;11.092;2023-09-07T07:11:03;10.93;;;7.53;;
3547;SDS011;1788;49.400;11.092;2023-09-07T07:13:30;10.77;;;8.33;;
3547;SDS011;1788;49.400;11.092;2023-09-07T07:15:56;9.90;;;7.93;;
3547;SDS011;1788;49.400;11.092;2023-09-07T07:18:23;10.90;;;8.40;;
3547;SDS011;1788;49.400;11.092;2023-09-07T07:20:49;10.37;;;7.53;;
3547;SDS011;1788;49.400;11.092;2023-09-07T07:23:16;9.43;;;7.23;;
3547;SDS011;1788;49.400;11.092;2023-09-07T07:25:43;12.50;;;7.63;;
3547;SDS011;1788;49.400;11.092;2023-09-07T07:28:09;12.00;;;7.20;;
3547;SDS011;1788;49.400;11.092;2023-09-07T07:30:37;9.53;;;7.60;;
3547;SDS011;1788;49.400;11.092;2023-09-07T07:33:03;10.97;;;7.33;;
3547;SDS011;1788;49.400;11.092;2023-09-07T07:37:56;9.10;;;6.80;;
3547;SDS011;1788;49.400;11.092;2023-09-07T07:40:22;9.87;;;6.87;;
3547;SDS011;1788;49.400;11.092;2023-09-07T07:42:51;9.00;;;6.00;;
3547;SDS011;1788;49.400;11.092;2023-09-07T07:45:16;10.47;;;6.77;;
3547;SDS011;1788;49.400;11.092;2023-09-07T07:47:44;8.27;;;6.23;;
3547;SDS011;1788;49.400;11.092;2023-09-07T07:50:10;6.20;;;5.77;;
3547;SDS011;1788;49.400;11.092;2023-09-07T07:52:37;8.07;;;6.17;;
3547;SDS011;1788;49.400;11.092;2023-09-07T07:55:04;8.73;;;6.17;;
3547;SDS011;1788;49.400;11.092;2023-09-07T07:57:31;7.93;;;6.93;;
3547;SDS011;1788;49.400;11.092;2023-09-07T07:59:57;8.87;;;5.80;;
3547;SDS011;1788;49.400;11.092;2023-09-07T08:02:23;8.00;;;5.80;;
3547;SDS011;1788;49.400;11.092;2023-09-07T08:04:50;7.97;;;5.77;;
3547;SDS011;1788;49.400;11.092;2023-09-07T08:07:17;5.97;;;5.67;;
3547;SDS011;1788;49.400;11.092;2023-09-07T08:09:44;5.47;;;5.17;;
3547;SDS011;1788;49.400;11.092;2023-09-07T08:12:11;5.13;;;4.60;;
3547;SDS011;1788;49.400;11.092;2023-09-07T08:14:37;6.87;;;5.00;;
3547;SDS011;1788;49.400;11.092;2023-09-07T08:17:04;6.33;;;4.77;;
3547;SDS011;1788;49.400;11.092;2023-09-07T08:19:30;5.27;;;4.40;;
3547;SDS011;1788;49.400;11.092;2023-09-07T08:21:58;5.80;;;4.30;;
3547;SDS011;1788;49.400;11.092;2023-09-07T08:24:24;5.57;;;4.23;;
3547;SDS011;1788;49.400;11.092;2023-09-07T08:26:52;5.30;;;4.67;;
3547;SDS011;1788;49.400;11.092;2023-09-07T08:29:18;4.80;;;4.40;;
3547;SDS011;1788;49.400;11.092;2023-09-07T08:31:46;7.33;;;4.67;;
3547;SDS011;1788;49.400;11.092;2023-09-07T08:34:12;4.57;;;4.27;;
3547;SDS011;1788;49.400;11.092;2023-09-07T08:36:39;4.50;;;4.13;;
3547;SDS011;1788;49.400;11.092;2023-09-07T08:39:06;5.27;;;4.33;;
3547;SDS011;1788;49.400;11.092;2023-09-07T08:43:59;5.27;;;4.50;;
3547;SDS011;1788;49.400;11.092;2023-09-07T08:46:25;4.57;;;4.27;;
3547;SDS011;1788;49.400;11.092;2023-09-07T08:48:52;5.77;;;4.57;;
3547;SDS011;1788;49.400;11.092;2023-09-07T08:51:19;4.03;;;3.83;;
3547;SDS011;1788;49.400;11.092;2023-09-07T08:53:46;5.03;;;3.80;;
3547;SDS011;1788;49.400;11.092;2023-09-07T08:56:13;5.47;;;3.93;;
3547;SDS011;1788;49.400;11.092;2023-09-07T08:58:39;4.40;;;4.07;;
3547;SDS011;1788;49.400;11.092;2023-09-07T09:01:06;5.40;;;4.40;;
3547;SDS011;1788;49.400;11.092;2023-09-07T09:03:32;4.93;;;4.20;;
3547;SDS011;1788;49.400;11.092;2023-09-07T09:06:01;6.00;;;4.23;;
3547;SDS011;1788;49.400;11.092;2023-09-07T09:08:27;4.53;;;4.23;;
3547;SDS011;1788;49.400;11.092;2023-09-07T09:15:48;4.77;;;3.90;;
3547;SDS011;1788;49.400;11.092;2023-09-07T09:18:15;3.97;;;3.70;;
3547;SDS011;1788;49.400;11.092;2023-09-07T09:20:43;4.30;;;3.93;;
3547;SDS011;1788;49.400;11.092;2023-09-07T09:23:08;5.77;;;4.23;;
3547;SDS011;1788;49.400;11.092;2023-09-07T09:25:35;3.97;;;3.80;;
3547;SDS011;1788;49.400;11.092;2023-09-07T09:28:02;4.53;;;3.97;;
3547;SDS011;1788;49.400;11.092;2023-09-07T09:30:28;4.20;;;3.67;;
3547;SDS011;1788;49.400;11.092;2023-09-07T09:32:55;4.37;;;3.80;;
3547;SDS011;1788;49.400;11.092;2023-09-07T09:35:22;5.37;;;4.17;;
3547;SDS011;1788;49.400;11.092;2023-09-07T09:37:49;3.67;;;3.40;;
3547;SDS011;1788;49.400;11.092;2023-09-07T09:40:17;4.00;;;3.80;;
3547;SDS011;1788;49.400;11.092;2023-09-07T09:42:44;3.40;;;3.20;;
3547;SDS011;1788;49.400;11.092;2023-09-07T09:45:10;4.27;;;4.00;;
3547;SDS011;1788;49.400;11.092;2023-09-07T09:47:38;5.07;;;3.77;;
3547;SDS011;1788;49.400;11.092;2023-09-07T09:50:04;4.77;;;4.47;;
3547;SDS011;1788;49.400;11.092;2023-09-07T09:52:31;3.93;;;3.60;;
3547;SDS011;1788;49.400;11.092;2023-09-07T09:54:57;4.70;;;4.20;;
3547;SDS011;1788;49.400;11.092;2023-09-07T09:57:25;4.37;;;3.93;;
3547;SDS011;1788;49.400;11.092;2023-09-07T09:59:51;5.37;;;4.30;;
3547;SDS011;1788;49.400;11.092;2023-09-07T10:02:19;4.03;;;3.83;;
3547;SDS011;1788;49.400;11.092;2023-09-07T10:04:45;4.83;;;4.10;;
3547;SDS011;1788;49.400;11.092;2023-09-07T10:07:12;4.47;;;3.67;;
3547;SDS011;1788;49.400;11.092;2023-09-07T10:09:38;4.00;;;3.80;;
3547;SDS011;1788;49.400;11.092;2023-09-07T10:12:11;4.57;;;3.63;;
3547;SDS011;1788;49.400;11.092;2023-09-07T10:17:01;7.13;;;3.83;;
3547;SDS011;1788;49.400;11.092;2023-09-07T10:19:28;5.47;;;3.77;;
3547;SDS011;1788;49.400;11.092;2023-09-07T10:21:57;4.53;;;3.90;;
3547;SDS011;1788;49.400;11.092;2023-09-07T10:24:24;4.23;;;3.97;;
3547;SDS011;1788;49.400;11.092;2023-09-07T10:29:16;3.67;;;3.43;;
3547;SDS011;1788;49.400;11.092;2023-09-07T10:31:50;4.33;;;4.03;;
3547;SDS011;1788;49.400;11.092;2023-09-07T10:34:09;4.20;;;3.40;;
3547;SDS011;1788;49.400;11.092;2023-09-07T10:36:36;3.60;;;3.40;;
3547;SDS011;1788;49.400;11.092;2023-09-07T10:39:02;4.07;;;3.87;;
3547;SDS011;1788;49.400;11.092;2023-09-07T10:41:39;6.33;;;3.63;;
3547;SDS011;1788;49.400;11.092;2023-09-07T10:43:56;5.77;;;4.03;;
3547;SDS011;1788;49.400;11.092;2023-09-07T10:46:23;4.10;;;3.47;;
3547;SDS011;1788;49.400;11.092;2023-09-07T10:48:50;4.57;;;3.67;;
3547;SDS011;1788;49.400;11.092;2023-09-07T10:51:16;4.87;;;3.93;;
3547;SDS011;1788;49.400;11.092;2023-09-07T10:53:43;5.37;;;4.30;;
3547;SDS011;1788;49.400;11.092;2023-09-07T10:56:10;4.07;;;3.43;;
3547;SDS011;1788;49.400;11.092;2023-09-07T10:58:37;4.30;;;3.53;;
3547;SDS011;1788;49.400;11.092;2023-09-07T11:01:05;4.37;;;4.07;;
3547;SDS011;1788;49.400;11.092;2023-09-07T11:03:32;3.90;;;3.60;;
3547;SDS011;1788;49.400;11.092;2023-09-07T11:06:00;4.13;;;3.87;;
3547;SDS011;1788;49.400;11.092;2023-09-07T11:08:27;5.53;;;4.37;;
3547;SDS011;1788;49.400;11.092;2023-09-07T11:10:53;3.80;;;3.63;;
3547;SDS011;1788;49.400;11.092;2023-09-07T11:13:19;7.27;;;4.37;;
3547;SDS011;1788;49.400;11.092;2023-09-07T11:15:46;3.60;;;3.40;;
3547;SDS011;1788;49.400;11.092;2023-09-07T11:18:13;5.23;;;4.33;;
3547;SDS011;1788;49.400;11.092;2023-09-07T11:20:40;6.10;;;4.83;;
3547;SDS011;1788;49.400;11.092;2023-09-07T11:23:07;5.33;;;4.10;;
3547;SDS011;1788;49.400;11.092;2023-09-07T11:25:35;5.63;;;3.80;;
3547;SDS011;1788;49.400;11.092;2023-09-07T11:28:01;5.20;;;3.87;;
3547;SDS011;1788;49.400;11.092;2023-09-07T11:30:27;4.70;;;4.37;;
3547;SDS011;1788;49.400;11.092;2023-09-07T11:35:21;5.53;;;4.47;;
3547;SDS011;1788;49.400;11.092;2023-09-07T11:37:51;4.23;;;3.97;;
3547;SDS011;1788;49.400;11.092;2023-09-07T11:40:14;6.83;;;4.37;;
3547;SDS011;1788;49.400;11.092;2023-09-07T11:42:41;5.43;;;4.17;;
3547;SDS011;1788;49.400;11.092;2023-09-07T11:45:08;5.53;;;3.60;;
3547;SDS011;1788;49.400;11.092;2023-09-07T11:47:34;4.30;;;3.70;;
3547;SDS011;1788;49.400;11.092;2023-09-07T11:50:02;5.60;;;4.37;;
3547;SDS011;1788;49.400;11.092;2023-09-07T11:52:28;4.97;;;4.57;;
3547;SDS011;1788;49.400;11.092;2023-09-07T11:54:55;6.33;;;5.03;;
3547;SDS011;1788;49.400;11.092;2023-09-07T11:57:21;4.60;;;4.00;;
3547;SDS011;1788;49.400;11.092;2023-09-07T11:59:48;4.90;;;4.07;;
3547;SDS011;1788;49.400;11.092;2023-09-07T12:02:15;4.07;;;3.90;;
3547;SDS011;1788;49.400;11.092;2023-09-07T12:04:42;6.53;;;4.10;;
3547;SDS011;1788;49.400;11.092;2023-09-07T12:07:10;4.07;;;3.87;;
3547;SDS011;1788;49.400;11.092;2023-09-07T12:09:36;4.37;;;4.07;;
3547;SDS011;1788;49.400;11.092;2023-09-07T12:12:04;4.57;;;3.83;;
3547;SDS011;1788;49.400;11.092;2023-09-07T12:14:30;4.67;;;4.20;;
3547;SDS011;1788;49.400;11.092;2023-09-07T12:16:57;4.90;;;4.10;;
3547;SDS011;1788;49.400;11.092;2023-09-07T12:19:23;7.00;;;4.83;;
3547;SDS011;1788;49.400;11.092;2023-09-07T12:21:51;5.40;;;3.77;;
3547;SDS011;1788;49.400;11.092;2023-09-07T12:24:17;4.33;;;4.03;;
3547;SDS011;1788;49.400;11.092;2023-09-07T12:26:44;7.63;;;4.10;;
3547;SDS011;1788;49.400;11.092;2023-09-07T12:29:11;4.43;;;4.17;;
3547;SDS011;1788;49.400;11.092;2023-09-07T12:31:37;5.83;;;4.60;;
3547;SDS011;1788;49.400;11.092;2023-09-07T12:34:04;6.13;;;4.57;;
3547;SDS011;1788;49.400;11.092;2023-09-07T12:36:30;5.30;;;4.17;;
3547;SDS011;1788;49.400;11.092;2023-09-07T12:38:57;5.87;;;4.37;;
3547;SDS011;1788;49.400;11.092;2023-09-07T12:41:24;7.33;;;3.90;;
3547;SDS011;1788;49.400;11.092;2023-09-07T12:43:51;4.53;;;4.00;;
3547;SDS011;1788;49.400;11.092;2023-09-07T12:46:18;3.90;;;3.70;;
3547;SDS011;1788;49.400;11.092;2023-09-07T12:48:45;4.77;;;4.47;;
3547;SDS011;1788;49.400;11.092;2023-09-07T12:51:12;4.50;;;3.87;;
3547;SDS011;1788;49.400;11.092;2023-09-07T12:53:39;6.32;;;4.35;;
3547;SDS011;1788;49.400;11.092;2023-09-07T12:56:07;5.03;;;4.73;;
3547;SDS011;1788;49.400;11.092;2023-09-07T12:58:33;6.12;;;3.90;;
3547;SDS011;1788;49.400;11.092;2023-09-07T13:01:00;6.40;;;4.57;;
3547;SDS011;1788;49.400;11.092;2023-09-07T13:03:27;5.78;;;4.32;;
3547;SDS011;1788;49.400;11.092;2023-09-07T13:05:53;7.28;;;4.53;;
3547;SDS011;1788;49.400;11.092;2023-09-07T13:08:20;5.93;;;4.62;;
3547;SDS011;1788;49.400;11.092;2023-09-07T13:10:47;6.70;;;4.60;;
3547;SDS011;1788;49.400;11.092;2023-09-07T13:13:14;5.60;;;4.75;;
3547;SDS011;1788;49.400;11.092;2023-09-07T13:15:41;5.10;;;4.40;;
3547;SDS011;1788;49.400;11.092;2023-09-07T13:18:07;5.07;;;4.60;;
3547;SDS011;1788;49.400;11.092;2023-09-07T13:20:34;4.60;;;4.28;;
3547;SDS011;1788;49.400;11.092;2023-09-07T13:23:01;6.45;;;4.60;;
3547;SDS011;1788;49.400;11.092;2023-09-07T13:25:27;7.10;;;5.10;;
3547;SDS011;1788;49.400;11.092;2023-09-07T13:27:54;5.37;;;4.93;;
3547;SDS011;1788;49.400;11.092;2023-09-07T13:30:21;5.32;;;4.43;;
3547;SDS011;1788;49.400;11.092;2023-09-07T13:32:48;4.82;;;4.53;;
3547;SDS011;1788;49.400;11.092;2023-09-07T13:35:14;5.05;;;4.55;;
3547;SDS011;1788;49.400;11.092;2023-09-07T13:37:41;4.30;;;4.00;;
3547;SDS011;1788;49.400;11.092;2023-09-07T13:40:07;4.78;;;4.47;;
3547;SDS011;1788;49.400;11.092;2023-09-07T13:42:34;4.47;;;4.15;;
3547;SDS011;1788;49.400;11.092;2023-09-07T13:45:01;5.62;;;4.55;;
3547;SDS011;1788;49.400;11.092;2023-09-07T13:47:28;5.05;;;4.53;;
3547;SDS011;1788;49.400;11.092;2023-09-07T13:49:54;5.05;;;4.37;;
3547;SDS011;1788;49.400;11.092;2023-09-07T13:52:21;6.50;;;4.82;;
3547;SDS011;1788;49.400;11.092;2023-09-07T13:54:48;6.20;;;4.60;;
3547;SDS011;1788;49.400;11.092;2023-09-07T13:57:15;4.78;;;4.50;;
3547;SDS011;1788;49.400;11.092;2023-09-07T13:59:42;4.62;;;4.32;;
3547;SDS011;1788;49.400;11.092;2023-09-07T14:02:09;4.43;;;4.12;;
3547;SDS011;1788;49.400;11.092;2023-09-07T14:04:37;5.00;;;4.37;;
3547;SDS011;1788;49.400;11.092;2023-09-07T14:07:03;4.30;;;4.03;;
3547;SDS011;1788;49.400;11.092;2023-09-07T14:09:30;4.57;;;4.18;;
3547;SDS011;1788;49.400;11.092;2023-09-07T14:11:57;3.87;;;3.67;;
3547;SDS011;1788;49.400;11.092;2023-09-07T14:14:23;3.65;;;3.45;;
3547;SDS011;1788;49.400;11.092;2023-09-07T14:16:50;3.45;;;3.25;;
3547;SDS011;1788;49.400;11.092;2023-09-07T14:19:16;4.45;;;4.15;;
3547;SDS011;1788;49.400;11.092;2023-09-07T14:21:43;5.05;;;3.58;;
3547;SDS011;1788;49.400;11.092;2023-09-07T14:24:10;3.75;;;3.53;;
3547;SDS011;1788;49.400;11.092;2023-09-07T14:26:37;5.05;;;4.00;;
3547;SDS011;1788;49.400;11.092;2023-09-07T14:29:04;4.00;;;3.55;;
3547;SDS011;1788;49.400;11.092;2023-09-07T14:31:30;5.05;;;4.00;;
3547;SDS011;1788;49.400;11.092;2023-09-07T14:33:57;4.32;;;4.00;;
3547;SDS011;1788;49.400;11.092;2023-09-07T14:36:24;4.72;;;3.72;;
3547;SDS011;1788;49.400;11.092;2023-09-07T14:38:50;4.68;;;3.80;;
3547;SDS011;1788;49.400;11.092;2023-09-07T14:41:17;6.28;;;3.50;;
3547;SDS011;1788;49.400;11.092;2023-09-07T14:43:44;3.58;;;3.30;;
3547;SDS011;1788;49.400;11.092;2023-09-07T14:46:10;4.18;;;3.53;;
3547;SDS011;1788;49.400;11.092;2023-09-07T14:48:37;3.30;;;3.10;;
3547;SDS011;1788;49.400;11.092;2023-09-07T14:51:03;3.30;;;2.92;;
3547;SDS011;1788;49.400;11.092;2023-09-07T14:53:30;3.97;;;3.62;;
3547;SDS011;1788;49.400;11.092;2023-09-07T14:55:57;3.80;;;3.40;;
3547;SDS011;1788;49.400;11.092;2023-09-07T14:58:23;4.37;;;4.05;;
3547;SDS011;1788;49.400;11.092;2023-09-07T15:00:50;5.15;;;4.85;;
3547;SDS011;1788;49.400;11.092;2023-09-07T15:03:17;5.43;;;4.43;;
3547;SDS011;1788;49.400;11.092;2023-09-07T15:05:43;6.37;;;4.43;;
3547;SDS011;1788;49.400;11.092;2023-09-07T15:08:10;4.93;;;4.57;;
3547;SDS011;1788;49.400;11.092;2023-09-07T15:10:37;5.65;;;4.62;;
3547;SDS011;1788;49.400;11.092;2023-09-07T15:13:03;4.78;;;4.47;;
3547;SDS011;1788;49.400;11.092;2023-09-07T15:15:30;6.68;;;4.57;;
3547;SDS011;1788;49.400;11.092;2023-09-07T15:17:57;4.53;;;4.22;;